createdAt,value
2019-02-19T00:01:38.015Z,95651.96
2019-02-19T00:04:09.436Z,95651.52
2019-02-19T00:06:41.947Z,95652.59
2019-02-19T00:09:13.392Z,95650.44
2019-02-19T00:11:44.843Z,95657.64
2019-02-19T00:14:16.475Z,95660.88
2019-02-19T00:16:47.878Z,95658.16
2019-02-19T00:19:19.308Z,95653.40
2019-02-19T00:21:50.788Z,95650.91
2019-02-19T00:24:22.134Z,95657.48
2019-02-19T00:26:53.531Z,95659.60
2019-02-19T00:29:24.881Z,95655.00
2019-02-19T00:31:56.321Z,95659.66
2019-02-19T00:34:27.733Z,95656.02
2019-02-19T00:36:59.193Z,95663.34
2019-02-19T00:39:30.707Z,95663.45
2019-02-19T00:42:02.129Z,95661.52
2019-02-19T00:44:33.540Z,95657.06
2019-02-19T00:47:05.113Z,95660.12
2019-02-19T00:49:40.399Z,95658.14
2019-02-19T00:52:11.545Z,95655.28
2019-02-19T00:54:42.969Z,95662.32
2019-02-19T00:57:14.419Z,95661.20
2019-02-19T00:59:45.823Z,95655.80
2019-02-19T01:02:17.283Z,95653.69
2019-02-19T01:04:48.709Z,95653.95
2019-02-19T01:07:20.221Z,95664.42
2019-02-19T01:09:51.641Z,95668.77
2019-02-19T01:12:23.551Z,95658.00
2019-02-19T01:14:54.980Z,95658.28
2019-02-19T01:17:26.492Z,95660.33
2019-02-19T01:19:57.913Z,95659.96
2019-02-19T01:22:29.402Z,95658.73
2019-02-19T01:25:00.842Z,95658.79
2019-02-19T01:27:34.032Z,95653.48
2019-02-19T01:30:06.901Z,95658.13
2019-02-19T01:32:38.364Z,95653.89
2019-02-19T01:35:10.420Z,95654.81
2019-02-19T01:37:41.861Z,95655.80
2019-02-19T01:40:13.291Z,95658.63
2019-02-19T01:42:44.731Z,95653.45
2019-02-19T01:45:18.698Z,95656.28
2019-02-19T01:47:50.130Z,95656.44
2019-02-19T01:50:21.579Z,95651.07
2019-02-19T01:52:53.008Z,95645.62
2019-02-19T01:55:27.207Z,95644.50
2019-02-19T01:57:58.938Z,95647.67
2019-02-19T02:00:30.357Z,95645.27
2019-02-19T02:03:01.715Z,95650.27
2019-02-19T02:05:33.077Z,95648.99
2019-02-19T02:08:04.532Z,95651.72
2019-02-19T02:10:35.880Z,95643.91
2019-02-19T02:13:07.250Z,95641.87
2019-02-19T02:15:42.666Z,95639.52
2019-02-19T02:18:11.808Z,95641.33
2019-02-19T02:20:43.227Z,95647.27
2019-02-19T02:23:14.683Z,95645.14
2019-02-19T02:25:46.092Z,95647.47
2019-02-19T02:28:17.566Z,95648.75
2019-02-19T02:30:48.987Z,95652.46
2019-02-19T02:33:20.392Z,95654.97
2019-02-19T02:35:51.815Z,95656.09
2019-02-19T02:38:23.303Z,95656.91
2019-02-19T02:40:55.174Z,95661.89
2019-02-19T02:43:26.786Z,95661.33
2019-02-19T02:45:58.214Z,95659.64
2019-02-19T02:48:29.664Z,95664.10
2019-02-19T02:51:01.092Z,95663.28
2019-02-19T02:53:32.559Z,95665.22
2019-02-19T02:56:03.928Z,95673.16
2019-02-19T02:58:35.946Z,95676.45
2019-02-19T03:01:10.450Z,95677.58
2019-02-19T03:03:53.320Z,95680.39
2019-02-19T03:06:39.884Z,95681.43
2019-02-19T03:09:14.556Z,95679.11
2019-02-19T03:11:47.191Z,95682.27
2019-02-19T03:14:21.360Z,95687.68
2019-02-19T03:16:57.842Z,95690.64
2019-02-19T03:19:29.326Z,95693.02
2019-02-19T03:22:00.754Z,95692.17
2019-02-19T03:24:32.246Z,95699.98
2019-02-19T03:27:03.669Z,95698.12
2019-02-19T03:29:35.135Z,95701.30
2019-02-19T03:32:06.558Z,95700.84
2019-02-19T03:34:38.042Z,95703.33
2019-02-19T03:37:09.361Z,95701.03
2019-02-19T03:39:40.835Z,95707.47
2019-02-19T03:42:12.485Z,95709.28
2019-02-19T03:44:43.917Z,95710.48
2019-02-19T03:47:15.490Z,95712.68
2019-02-19T03:49:48.220Z,95712.52
2019-02-19T03:52:21.290Z,95715.77
2019-02-19T03:54:52.824Z,95719.11
2019-02-19T03:57:24.179Z,95721.45
2019-02-19T03:59:55.633Z,95727.06
2019-02-19T04:02:27.294Z,95728.94
2019-02-19T04:04:58.720Z,95732.63
2019-02-19T04:07:30.155Z,95730.59
2019-02-19T04:10:01.626Z,95733.15
2019-02-19T04:12:34.114Z,95731.66
2019-02-19T04:15:05.691Z,95729.98
2019-02-19T04:17:37.296Z,95732.49
2019-02-19T04:20:09.479Z,95736.59
2019-02-19T04:22:41.118Z,95740.25
2019-02-19T04:25:12.602Z,95743.41
2019-02-19T04:27:43.971Z,95742.52
2019-02-19T04:30:15.395Z,95739.80
2019-02-19T04:32:46.824Z,95744.47
2019-02-19T04:35:18.904Z,95743.04
2019-02-19T04:37:50.295Z,95742.29
2019-02-19T04:40:21.718Z,95738.58
2019-02-19T04:42:53.148Z,95742.80
2019-02-19T04:45:24.577Z,95743.25
2019-02-19T04:47:58.029Z,95740.48
2019-02-19T04:50:29.189Z,95740.39
2019-02-19T04:53:00.711Z,95739.08
2019-02-19T04:55:32.170Z,95738.46
2019-02-19T04:58:03.640Z,95737.81
2019-02-19T05:00:35.195Z,95739.15
2019-02-19T05:03:06.653Z,95742.70
2019-02-19T05:05:39.691Z,95734.38
2019-02-19T05:08:11.131Z,95735.27
2019-02-19T05:10:42.594Z,95734.52
2019-02-19T05:13:15.665Z,95736.13
2019-02-19T05:15:47.031Z,95734.48
2019-02-19T05:18:18.441Z,95732.94
2019-02-19T05:20:51.533Z,95733.72
2019-02-19T05:23:22.954Z,95737.34
2019-02-19T05:25:54.411Z,95733.13
2019-02-19T05:28:25.747Z,95740.69
2019-02-19T05:30:57.315Z,95743.71
2019-02-19T05:33:28.778Z,95745.05
2019-02-19T05:36:00.309Z,95747.42
2019-02-19T05:38:31.789Z,95752.16
2019-02-19T05:41:03.480Z,95752.90
2019-02-19T05:43:34.899Z,95752.23
2019-02-19T05:46:06.352Z,95758.13
2019-02-19T05:48:37.789Z,95750.37
2019-02-19T05:51:09.151Z,95759.69
2019-02-19T05:53:40.601Z,95761.98
2019-02-19T05:56:12.080Z,95761.38
2019-02-19T05:58:43.508Z,95755.84
2019-02-19T06:01:14.989Z,95756.84
2019-02-19T06:03:46.413Z,95764.45
2019-02-19T06:06:17.868Z,95764.47
2019-02-19T06:08:49.342Z,95757.58
2019-02-19T06:11:23.011Z,95760.67
2019-02-19T06:13:54.498Z,95760.67
2019-02-19T06:16:26.005Z,95770.41
2019-02-19T06:18:58.659Z,95765.35
2019-02-19T06:21:30.101Z,95765.14
2019-02-19T06:24:01.582Z,95769.20
2019-02-19T06:26:33.021Z,95772.38
2019-02-19T06:29:04.471Z,95769.06
2019-02-19T06:31:35.853Z,95776.31
2019-02-19T06:34:07.331Z,95780.36
2019-02-19T06:36:38.818Z,95782.55
2019-02-19T06:39:10.281Z,95781.62
2019-02-19T06:41:46.315Z,95784.63
2019-02-19T06:44:21.321Z,95786.34
2019-02-19T06:46:54.110Z,95791.59
2019-02-19T06:49:25.567Z,95791.74
2019-02-19T06:51:57.438Z,95796.88
2019-02-19T06:54:29.849Z,95795.20
2019-02-19T06:57:03.113Z,95797.00
2019-02-19T06:59:34.533Z,95800.47
2019-02-19T07:02:42.963Z,95794.03
2019-02-19T07:05:19.520Z,95799.64
2019-02-19T07:07:50.963Z,95800.33
2019-02-19T07:10:23.037Z,95798.47
2019-02-19T07:12:57.396Z,95814.41
2019-02-19T07:15:30.449Z,95801.84
2019-02-19T07:18:01.877Z,95804.83
2019-02-19T07:20:35.605Z,95791.29
2019-02-19T07:23:08.297Z,95812.46
2019-02-19T07:25:39.734Z,95786.89
2019-02-19T07:28:11.233Z,95801.37
2019-02-19T07:30:42.687Z,95794.05
2019-02-19T07:33:14.104Z,95789.16
2019-02-19T07:35:45.549Z,95801.42
2019-02-19T07:38:17.047Z,95787.16
2019-02-19T07:40:48.418Z,95814.09
2019-02-19T07:43:19.889Z,95801.80
2019-02-19T07:45:52.334Z,95924.96
2019-02-19T07:48:26.446Z,95807.88
2019-02-19T07:50:57.940Z,95779.62
2019-02-19T07:53:29.417Z,95782.86
2019-02-19T07:56:00.748Z,95778.45
2019-02-19T07:58:32.328Z,95779.77
2019-02-19T08:01:03.817Z,95855.63
2019-02-19T08:03:35.368Z,95820.99
2019-02-19T08:06:06.795Z,95807.73
2019-02-19T08:08:38.281Z,95774.64
2019-02-19T08:11:09.852Z,95774.69
2019-02-19T08:13:41.234Z,95788.80
2019-02-19T08:16:12.667Z,95763.39
2019-02-19T08:18:45.243Z,95771.05
2019-02-19T08:21:16.773Z,95776.03
2019-02-19T08:23:48.249Z,95775.16
2019-02-19T08:26:19.723Z,95770.30
2019-02-19T08:28:51.332Z,95771.53
2019-02-19T08:31:24.579Z,95781.47
2019-02-19T08:33:57.654Z,95780.11
2019-02-19T08:36:30.216Z,95763.64
2019-02-19T08:39:01.591Z,95763.64
2019-02-19T08:41:34.638Z,95765.02
2019-02-19T08:44:06.132Z,95763.59
2019-02-19T08:46:37.589Z,95757.35
2019-02-19T08:49:09.046Z,95765.45
2019-02-19T08:51:40.502Z,95762.13
2019-02-19T08:54:13.580Z,95758.13
2019-02-19T08:56:47.284Z,95758.25
2019-02-19T08:59:19.256Z,95752.77
2019-02-19T09:01:52.686Z,95752.20
2019-02-19T09:04:24.140Z,95754.73
2019-02-19T09:06:55.610Z,95752.64
2019-02-19T09:09:27.307Z,95748.48
2019-02-19T09:11:58.744Z,95759.63
2019-02-19T09:14:30.208Z,95752.12
2019-02-19T09:17:01.583Z,95771.03
2019-02-19T09:19:33.123Z,95761.13
2019-02-19T09:22:04.607Z,95747.84
2019-02-19T09:24:36.093Z,95757.61
2019-02-19T09:27:07.566Z,95836.67
2019-02-19T09:29:39.008Z,95815.22
2019-02-19T09:32:15.806Z,95793.39
2019-02-19T09:34:48.826Z,95768.81
2019-02-19T09:37:20.348Z,95759.30
2019-02-19T09:39:55.864Z,95764.66
2019-02-19T09:42:29.486Z,95758.59
2019-02-19T09:45:07.663Z,95756.48
2019-02-19T09:47:45.622Z,95745.52
2019-02-19T09:50:17.069Z,95751.47
2019-02-19T09:52:59.772Z,95754.02
2019-02-19T09:55:40.131Z,95762.27
2019-02-19T09:58:27.974Z,95749.78
2019-02-19T10:01:00.713Z,95754.00
2019-02-19T10:03:38.125Z,95751.60
2019-02-19T10:06:13.522Z,95755.23
2019-02-19T10:08:49.627Z,95759.07
2019-02-19T10:11:26.267Z,95759.37
2019-02-19T10:14:09.941Z,95754.56
2019-02-19T10:16:42.164Z,95758.33
2019-02-19T10:19:14.010Z,95752.86
2019-02-19T10:21:45.823Z,95755.68
2019-02-19T10:24:17.229Z,95750.16
2019-02-19T10:26:49.690Z,95756.61
2019-02-19T10:29:21.346Z,95749.70
2019-02-19T10:31:52.930Z,95754.30
2019-02-19T10:34:24.412Z,95748.13
2019-02-19T10:36:55.848Z,95751.83
2019-02-19T10:39:27.313Z,95748.13
2019-02-19T10:41:58.813Z,95752.48
2019-02-19T10:44:30.252Z,95753.88
2019-02-19T10:47:05.453Z,95749.53
2019-02-19T10:49:36.917Z,95756.36
2019-02-19T10:52:08.475Z,95757.98
2019-02-19T10:54:39.979Z,95748.23
2019-02-19T10:57:11.451Z,95753.33
2019-02-19T10:59:42.904Z,95748.91
2019-02-19T11:02:16.399Z,95758.94
2019-02-19T11:04:49.309Z,95750.28
2019-02-19T11:07:20.777Z,95746.61
2019-02-19T11:09:55.008Z,95740.83
2019-02-19T11:12:26.477Z,95746.62
2019-02-19T11:15:00.976Z,95739.21
2019-02-19T11:17:32.584Z,95743.60
2019-02-19T11:20:04.135Z,95739.07
2019-02-19T11:22:35.685Z,95732.83
2019-02-19T11:25:09.222Z,95733.84
2019-02-19T11:27:40.736Z,95737.52
2019-02-19T11:30:15.092Z,95736.71
2019-02-19T11:32:46.676Z,95737.61
2019-02-19T11:35:18.174Z,95734.66
2019-02-19T11:37:49.631Z,95734.72
2019-02-19T11:40:21.074Z,95731.76
2019-02-19T11:42:52.528Z,95736.16
2019-02-19T11:45:23.992Z,95733.89
2019-02-19T11:47:55.503Z,95732.19
2019-02-19T11:50:26.947Z,95732.87
2019-02-19T11:52:58.527Z,95730.22
2019-02-19T11:55:31.132Z,95730.81
2019-02-19T11:58:02.547Z,95725.65
2019-02-19T12:00:39.156Z,95728.53
2019-02-19T12:03:10.665Z,95721.41
2019-02-19T12:05:42.111Z,95719.88
2019-02-19T12:08:15.725Z,95713.31
2019-02-19T12:10:47.170Z,95711.84
2019-02-19T12:13:18.655Z,95711.56
2019-02-19T12:15:50.094Z,95716.25
2019-02-19T12:18:21.557Z,95707.16
2019-02-19T12:20:53.015Z,95712.38
2019-02-19T12:23:24.453Z,95713.17
2019-02-19T12:25:55.902Z,95712.02
2019-02-19T12:28:27.400Z,95708.64
2019-02-19T12:30:58.823Z,95706.80
2019-02-19T12:33:30.389Z,95708.61
2019-02-19T12:36:01.924Z,95704.09
2019-02-19T12:38:33.358Z,95701.84
2019-02-19T12:41:04.837Z,95703.89
2019-02-19T12:43:36.306Z,95696.95
2019-02-19T12:46:07.778Z,95687.48
2019-02-19T12:48:44.260Z,95684.33
2019-02-19T12:51:15.635Z,95686.52
2019-02-19T12:53:49.926Z,95694.57
2019-02-19T12:56:28.338Z,95693.03
2019-02-19T12:59:11.358Z,95688.66
2019-02-19T13:01:44.920Z,95688.69
2019-02-19T13:04:20.978Z,95689.45
2019-02-19T13:06:56.807Z,95681.95
2019-02-19T13:09:33.807Z,95683.94
2019-02-19T13:12:18.593Z,95678.11
2019-02-19T13:14:52.314Z,95673.94
2019-02-19T13:17:25.223Z,95678.60
2019-02-19T13:19:58.221Z,95675.48
2019-02-19T13:22:29.671Z,95667.08
2019-02-19T13:25:01.111Z,95668.55
2019-02-19T13:27:32.553Z,95662.86
2019-02-19T13:30:04.051Z,95661.38
2019-02-19T13:32:37.145Z,95657.45
2019-02-19T13:35:09.575Z,95655.60
2019-02-19T13:37:41.032Z,95652.41
2019-02-19T13:40:13.389Z,95659.92
2019-02-19T13:42:44.832Z,95657.53
2019-02-19T13:45:16.302Z,95662.28
2019-02-19T13:47:47.844Z,95657.98
2019-02-19T13:50:21.111Z,95655.32
2019-02-19T13:53:02.631Z,95665.78
2019-02-19T13:55:38.222Z,95660.66
2019-02-19T13:58:09.653Z,95668.31
2019-02-19T14:00:42.937Z,95666.02
2019-02-19T14:03:14.434Z,95659.35
2019-02-19T14:05:45.909Z,95658.88
2019-02-19T14:08:17.366Z,95664.02
2019-02-19T14:10:48.825Z,95662.02
2019-02-19T14:13:20.471Z,95669.43
2019-02-19T14:15:58.912Z,95663.23
2019-02-19T14:18:48.081Z,95659.22
2019-02-19T14:21:38.410Z,95656.47
2019-02-19T14:24:27.328Z,95667.84
2019-02-19T14:27:08.110Z,95662.42
2019-02-19T14:30:07.585Z,95660.19
2019-02-19T14:32:56.947Z,95666.73
2019-02-19T14:35:56.415Z,95675.72
2019-02-19T14:38:53.738Z,95672.22
2019-02-19T14:41:46.888Z,95662.46
2019-02-19T14:44:36.226Z,95670.13
2019-02-19T14:47:25.472Z,95672.24
2019-02-19T14:50:12.856Z,95676.08
2019-02-19T14:52:56.314Z,95667.51
2019-02-19T14:55:45.507Z,95669.15
2019-02-19T14:58:38.842Z,95673.05
2019-02-19T15:01:35.550Z,95668.58
2019-02-19T15:04:25.893Z,95669.33
2019-02-19T15:07:09.576Z,95664.35
2019-02-19T15:10:02.722Z,95662.53
2019-02-19T15:12:53.535Z,95657.54
2019-02-19T15:15:46.631Z,95666.16
2019-02-19T15:18:46.065Z,95662.57
2019-02-19T15:21:32.386Z,95661.06
2019-02-19T15:24:29.125Z,95658.09
2019-02-19T15:27:06.654Z,95656.37
2019-02-19T15:29:54.352Z,95651.98
2019-02-19T15:32:50.468Z,95649.70
2019-02-19T15:35:39.585Z,95646.59
2019-02-19T15:38:29.936Z,95652.18
2019-02-19T15:41:23.172Z,95641.05
2019-02-19T15:44:06.045Z,95641.80
2019-02-19T15:46:56.313Z,95637.47
2019-02-19T15:49:47.900Z,95636.49
2019-02-19T15:52:41.029Z,95636.91
2019-02-19T15:55:30.386Z,95640.95
2019-02-19T15:58:22.101Z,95643.14
2019-02-19T16:01:11.471Z,95643.28
2019-02-19T16:03:52.220Z,95647.55
2019-02-19T16:06:29.108Z,95650.77
2019-02-19T16:09:18.131Z,95660.77
2019-02-19T16:12:14.508Z,95653.02
2019-02-19T16:15:03.527Z,95645.08
2019-02-19T16:17:53.934Z,95651.61
2019-02-19T16:20:47.278Z,95651.06
2019-02-19T16:23:43.911Z,95639.95
2019-02-19T16:26:37.307Z,95644.13
2019-02-19T16:29:34.824Z,95645.90
2019-02-19T16:32:35.797Z,95646.87
2019-02-19T16:38:51.648Z,95658.50
2019-02-19T16:41:56.628Z,95649.98
2019-02-19T16:45:06.690Z,95651.92
2019-02-19T16:48:06.790Z,95661.44
2019-02-19T16:50:56.566Z,95656.11
2019-02-19T16:53:57.388Z,95663.71
2019-02-19T16:57:08.111Z,95656.64
2019-02-19T17:00:07.459Z,95665.88
2019-02-19T17:03:05.762Z,95673.73
2019-02-19T17:06:03.930Z,95672.80
2019-02-19T17:08:45.600Z,95673.55
2019-02-19T17:11:29.764Z,95685.55
2019-02-19T17:14:33.253Z,95688.20
2019-02-19T17:17:39.357Z,95694.59
2019-02-19T17:20:39.697Z,95697.86
2019-02-19T17:23:46.352Z,95695.43
2019-02-19T17:26:31.670Z,95698.28
2019-02-19T17:29:28.228Z,95701.02
2019-02-19T17:32:17.177Z,95700.25
2019-02-19T17:35:01.846Z,95702.14
2019-02-19T17:38:00.874Z,95708.64
2019-02-19T17:41:03.442Z,95718.45
2019-02-19T17:43:49.100Z,95718.02
2019-02-19T17:46:35.505Z,95717.72
2019-02-19T17:49:27.757Z,95719.75
2019-02-19T17:52:08.448Z,95723.00
2019-02-19T17:54:47.228Z,95714.19
2019-02-19T17:57:36.654Z,95722.23
2019-02-19T18:00:30.167Z,95722.23
2019-02-19T18:03:24.553Z,95719.31
2019-02-19T18:06:22.922Z,95720.83
2019-02-19T18:09:15.770Z,95728.16
2019-02-19T18:12:19.069Z,95727.42
2019-02-19T18:15:05.187Z,95732.89
2019-02-19T18:17:57.977Z,95732.41
2019-02-19T18:20:32.967Z,95736.31
2019-02-19T18:23:06.666Z,95739.84
2019-02-19T18:25:40.009Z,95745.97
2019-02-19T18:28:12.857Z,95749.80
2019-02-19T18:30:46.355Z,95746.98
2019-02-19T18:33:23.205Z,95753.11
2019-02-19T18:36:00.016Z,95754.51
2019-02-19T18:38:41.350Z,95755.84
2019-02-19T18:41:19.467Z,95765.23
2019-02-19T18:43:53.998Z,95758.50
2019-02-19T18:46:28.962Z,95767.71
2019-02-19T18:49:00.395Z,95767.11
2019-02-19T18:51:31.829Z,95762.71
2019-02-19T18:54:03.301Z,95765.67
2019-02-19T18:56:34.818Z,95763.16
2019-02-19T18:59:07.540Z,95769.34
2019-02-19T19:01:40.608Z,95772.30
2019-02-19T19:04:12.079Z,95774.45
2019-02-19T19:06:43.507Z,95778.84
2019-02-19T19:09:14.959Z,95777.44
2019-02-19T19:11:46.382Z,95781.08
2019-02-19T19:14:17.831Z,95783.10
2019-02-19T19:16:49.259Z,95780.98
2019-02-19T19:19:20.732Z,95790.41
2019-02-19T19:21:52.242Z,95791.23
2019-02-19T19:24:23.712Z,95794.91
2019-02-19T19:26:55.146Z,95795.49
2019-02-19T19:29:26.581Z,95801.73
2019-02-19T19:31:58.019Z,95801.97
2019-02-19T19:34:29.491Z,95799.97
2019-02-19T19:37:00.919Z,95799.50
2019-02-19T19:39:34.864Z,95798.33
2019-02-19T19:42:06.328Z,95804.70
2019-02-19T19:44:37.794Z,95813.91
2019-02-19T19:47:09.257Z,95814.86
2019-02-19T19:49:40.721Z,95823.22
2019-02-19T19:52:12.155Z,95814.84
2019-02-19T19:54:43.631Z,95822.73
2019-02-19T19:57:15.075Z,95827.78
2019-02-19T19:59:46.651Z,95823.28
2019-02-19T20:02:20.909Z,95829.91
2019-02-19T20:05:02.977Z,95832.88
2019-02-19T20:07:36.584Z,95833.80
2019-02-19T20:10:10.068Z,95842.27
2019-02-19T20:12:41.544Z,95841.30
2019-02-19T20:15:13.581Z,95840.58
2019-02-19T20:17:45.140Z,95839.86
2019-02-19T20:20:16.607Z,95838.09
2019-02-19T20:22:48.028Z,95841.14
2019-02-19T20:25:19.498Z,95846.66
2019-02-19T20:27:51.004Z,95845.94
2019-02-19T20:30:22.485Z,95844.98
2019-02-19T20:32:54.017Z,95851.89
2019-02-19T20:35:25.548Z,95846.93
2019-02-19T20:37:57.035Z,95847.89
2019-02-19T20:40:28.465Z,95849.17
2019-02-19T20:42:59.957Z,95856.44
2019-02-19T20:45:33.287Z,95858.47
2019-02-19T20:48:04.758Z,95858.58
2019-02-19T20:50:36.307Z,95858.69
2019-02-19T20:53:07.783Z,95860.72
2019-02-19T20:55:39.740Z,95856.08
2019-02-19T20:58:11.336Z,95858.90
2019-02-19T21:00:46.783Z,95861.27
2019-02-19T21:03:19.929Z,95863.59
2019-02-19T21:05:54.529Z,95862.86
2019-02-19T21:08:30.377Z,95872.14
2019-02-19T21:11:01.894Z,95867.54
2019-02-19T21:13:33.411Z,95871.97
2019-02-19T21:16:04.926Z,95878.63
2019-02-19T21:18:36.522Z,95876.84
2019-02-19T21:21:08.047Z,95876.80
2019-02-19T21:23:41.509Z,95880.38
2019-02-19T21:26:18.173Z,95886.00
2019-02-19T21:28:55.831Z,95885.66
2019-02-19T21:31:26.670Z,95886.08
2019-02-19T21:34:01.016Z,95886.21
2019-02-19T21:36:37.425Z,95884.36
2019-02-19T21:39:12.827Z,95879.42
2019-02-19T21:41:51.826Z,95882.47
2019-02-19T21:44:25.501Z,95878.66
2019-02-19T21:47:00.881Z,95882.82
2019-02-19T21:49:35.561Z,95887.89
2019-02-19T21:52:07.485Z,95890.27
2019-02-19T21:54:39.003Z,95894.81
2019-02-19T21:57:10.422Z,95891.98
2019-02-19T21:59:41.881Z,95895.83
2019-02-19T22:02:16.434Z,95898.91
2019-02-19T22:04:47.579Z,95898.50
2019-02-19T22:07:19.053Z,95889.34
2019-02-19T22:09:55.535Z,95894.73
2019-02-19T22:12:26.067Z,95894.27
2019-02-19T22:14:57.489Z,95897.88
2019-02-19T22:17:29.977Z,95900.84
2019-02-19T22:20:03.732Z,95899.03
2019-02-19T22:22:36.755Z,95904.97
2019-02-19T22:25:08.267Z,95904.61
2019-02-19T22:27:39.686Z,95904.47
2019-02-19T22:30:11.649Z,95907.51
2019-02-19T22:32:43.045Z,95904.09
2019-02-19T22:35:14.477Z,95903.59
2019-02-19T22:37:45.901Z,95903.05
2019-02-19T22:40:17.338Z,95901.37
2019-02-19T22:42:48.819Z,95890.69
2019-02-19T22:45:24.454Z,95890.69
2019-02-19T22:47:55.881Z,95900.22
2019-02-19T22:50:27.306Z,95897.53
2019-02-19T22:52:58.709Z,95893.02
2019-02-19T22:55:54.925Z,95901.33
2019-02-19T22:58:26.255Z,95895.55
2019-02-19T23:01:23.183Z,95901.17
2019-02-19T23:03:57.765Z,95901.53
2019-02-19T23:06:29.211Z,95903.11
2019-02-19T23:09:00.579Z,95910.68
2019-02-19T23:11:33.635Z,95912.16
2019-02-19T23:14:04.995Z,95916.69
2019-02-19T23:16:36.609Z,95916.05
2019-02-19T23:19:08.078Z,95920.31
2019-02-19T23:21:39.500Z,95916.03
2019-02-19T23:24:10.989Z,95921.02
2019-02-19T23:26:42.341Z,95923.41
2019-02-19T23:29:13.808Z,95922.21
2019-02-19T23:31:45.310Z,95921.45
2019-02-19T23:34:16.659Z,95924.45
2019-02-19T23:36:54.105Z,95920.87
2019-02-19T23:39:25.427Z,95921.76
2019-02-19T23:41:58.620Z,95917.78
2019-02-19T23:44:29.966Z,95914.94
2019-02-19T23:47:03.875Z,95926.09
2019-02-19T23:49:38.387Z,95923.05
2019-02-19T23:52:09.835Z,95922.52
2019-02-19T23:54:41.251Z,95925.69
2019-02-19T23:57:12.629Z,95917.39
2019-02-19T23:59:43.964Z,95924.64
